Main page
METAR-TAF:

METAR-TAF

Airports :

Baghdad International Airport

Baghdad, Iraq

latitude: 33-15-45N, longitude: 44-14-04E, elevation: 35 m

Current weather observation

The report was made 1 hour and 2 minutes ago, at 06:00 UTC
Wind 5 kt from the North/Northwest, varying between Northwest and North/Northeast
Temperature 33°C
Humidity 32%
Pressure 1006 hPa
Visibility 10 km or more
no clouds below 1500 m and no cumulonimbus

METAR: ORBI 190600Z 34005KT 310V020 CAVOK 33/14 Q1006 NOSIG

Time: 10:02 (07:02 UTC)

Forecast

The report was made 3 hours and 2 minutes ago, at 04:00 UTC
Forecast valid from 19 at 06 UTC to 20 at 06 UTC
Wind 8 kt from the Northwest
Visibility 10 km or more
no clouds below 1500 m and no cumulonimbus

TAF: ORBI 190400Z 1906/2006 32008KT CAVOK

Weather observations and forecasts of more than 4000 airports (METAR and TAF reports).

The available stations are represented by yellow and red dots on the map.

Hover mouse over dot to see the name of the station.

Then click to see weather observations and forecasts.

To change the map : click on the green buttons with a black cross to zoom in, on the green button with a dash to zoom out, or on the green arrows for adjacent maps.


METAR-TAF: